createdAt,value
2022-10-26T00:01:21.672Z,3.63
2022-10-26T00:03:49.132Z,6.33
2022-10-26T00:06:20.173Z,6.35
2022-10-26T00:08:48.686Z,5.95
2022-10-26T00:13:46.213Z,4.30
2022-10-26T00:16:27.199Z,3.70
2022-10-26T00:18:55.019Z,4.97
2022-10-26T00:21:22.361Z,4.85
2022-10-26T00:23:49.627Z,5.90
2022-10-26T00:26:16.865Z,4.53
2022-10-26T00:28:44.211Z,6.72
2022-10-26T00:31:16.119Z,5.20
2022-10-26T00:33:43.385Z,5.90
2022-10-26T00:36:13.963Z,5.53
2022-10-26T00:38:46.115Z,6.05
2022-10-26T00:41:22.874Z,8.05
2022-10-26T00:43:50.804Z,5.85
2022-10-26T00:46:36.049Z,6.85
2022-10-26T00:49:14.610Z,6.85
2022-10-26T00:51:50.899Z,7.57
2022-10-26T00:54:20.370Z,8.90
2022-10-26T00:56:52.169Z,6.95
2022-10-26T00:59:22.831Z,12.27
2022-10-26T01:01:51.563Z,6.78
2022-10-26T01:04:20.140Z,8.00
2022-10-26T01:11:45.537Z,8.15
2022-10-26T01:14:18.200Z,8.80
2022-10-26T01:17:22.385Z,7.60
2022-10-26T01:20:21.692Z,6.90
2022-10-26T01:23:08.171Z,5.30
2022-10-26T01:26:08.888Z,6.78
2022-10-26T01:29:11.698Z,7.45
2022-10-26T01:32:08.115Z,5.38
2022-10-26T01:34:50.481Z,7.25
2022-10-26T01:37:31.024Z,8.88
2022-10-26T01:40:28.979Z,13.40
2022-10-26T01:43:02.702Z,6.28
2022-10-26T01:45:33.927Z,11.65
2022-10-26T01:48:04.630Z,7.80
2022-10-26T01:50:33.881Z,8.95
2022-10-26T01:53:01.205Z,8.73
2022-10-26T01:55:49.239Z,9.38
2022-10-26T01:58:46.648Z,13.48
2022-10-26T02:01:52.216Z,14.82
2022-10-26T02:04:47.401Z,14.25
2022-10-26T02:07:48.293Z,14.63
2022-10-26T02:11:00.126Z,16.63
2022-10-26T02:14:16.206Z,14.93
2022-10-26T02:17:16.338Z,14.98
2022-10-26T02:20:02.327Z,15.23
2022-10-26T02:22:38.114Z,18.83
2022-10-26T02:25:14.243Z,16.83
2022-10-26T02:27:52.678Z,16.60
2022-10-26T02:30:20.398Z,18.88
2022-10-26T02:32:53.375Z,16.13
2022-10-26T02:35:29.799Z,17.67
2022-10-26T02:38:02.814Z,19.70
2022-10-26T02:40:32.487Z,19.05
2022-10-26T02:43:07.684Z,17.23
2022-10-26T02:45:46.513Z,15.65
2022-10-26T02:48:16.515Z,14.65
2022-10-26T02:51:09.703Z,15.18
2022-10-26T02:53:51.822Z,21.35
2022-10-26T02:56:29.532Z,16.88
2022-10-26T02:59:02.623Z,15.80
2022-10-26T03:01:32.031Z,15.43
2022-10-26T03:04:00.342Z,19.67
2022-10-26T03:06:27.852Z,15.20
2022-10-26T03:08:55.146Z,16.65
2022-10-26T03:11:22.526Z,20.33
2022-10-26T03:13:49.796Z,20.48
2022-10-26T03:16:16.972Z,13.82
2022-10-26T03:18:44.210Z,16.17
2022-10-26T03:21:11.485Z,15.60
2022-10-26T03:23:38.704Z,13.32
2022-10-26T03:26:06.282Z,17.50
2022-10-26T03:28:33.611Z,13.27
2022-10-26T03:31:00.952Z,10.02
2022-10-26T03:33:28.252Z,8.93
2022-10-26T03:35:57.082Z,13.73
2022-10-26T03:38:24.453Z,9.52
2022-10-26T03:40:51.826Z,7.82
2022-10-26T03:43:19.323Z,15.38
2022-10-26T03:45:46.771Z,9.98
2022-10-26T03:48:14.459Z,11.15
2022-10-26T03:50:41.993Z,10.35
2022-10-26T03:53:09.520Z,9.60
2022-10-26T03:55:37.108Z,12.50
2022-10-26T03:58:04.831Z,9.35
2022-10-26T04:00:32.129Z,12.07
2022-10-26T04:03:00.868Z,8.95
2022-10-26T04:05:30.129Z,8.88
2022-10-26T04:08:00.369Z,7.75
2022-10-26T04:10:28.332Z,8.27
2022-10-26T04:12:56.423Z,8.75
2022-10-26T04:15:23.836Z,7.78
2022-10-26T04:18:02.434Z,9.55
2022-10-26T04:20:32.964Z,6.28
2022-10-26T04:23:06.828Z,12.32
2022-10-26T04:25:35.104Z,10.52
2022-10-26T04:28:05.308Z,12.13
2022-10-26T04:30:34.816Z,9.07
2022-10-26T04:33:03.483Z,12.23
2022-10-26T04:35:31.276Z,15.30
2022-10-26T04:38:04.970Z,14.20
2022-10-26T04:40:34.895Z,12.98
2022-10-26T04:43:02.867Z,16.00
2022-10-26T04:45:31.260Z,21.67
2022-10-26T04:50:39.913Z,17.30
2022-10-26T04:53:10.979Z,22.50
2022-10-26T04:55:38.382Z,16.15
2022-10-26T04:58:06.341Z,16.83
2022-10-26T05:00:35.054Z,19.00
2022-10-26T05:03:05.762Z,15.18
2022-10-26T05:05:35.695Z,16.10
2022-10-26T05:08:03.981Z,16.05
2022-10-26T05:10:31.463Z,15.43
2022-10-26T05:13:00.816Z,17.70
2022-10-26T05:15:28.991Z,17.17
2022-10-26T05:18:05.886Z,18.77
2022-10-26T05:20:36.126Z,16.95
2022-10-26T05:23:11.875Z,20.02
2022-10-26T05:25:39.409Z,20.23
2022-10-26T05:28:12.069Z,20.53
2022-10-26T05:30:41.883Z,24.80
2022-10-26T05:33:12.089Z,18.92
2022-10-26T05:35:39.952Z,17.30
2022-10-26T05:38:14.306Z,21.80
2022-10-26T05:40:54.575Z,21.38
2022-10-26T05:43:24.232Z,18.75
2022-10-26T05:45:52.118Z,22.27
2022-10-26T05:48:22.558Z,30.30
2022-10-26T05:50:50.415Z,28.08
2022-10-26T05:53:18.132Z,39.70
2022-10-26T05:55:47.035Z,42.25
2022-10-26T05:58:15.844Z,43.45
2022-10-26T06:01:12.897Z,41.28
2022-10-26T06:04:06.503Z,45.03
2022-10-26T06:06:47.350Z,52.47
2022-10-26T06:09:16.506Z,54.00
2022-10-26T06:11:44.249Z,58.22
2022-10-26T06:14:12.128Z,53.47
2022-10-26T06:17:23.660Z,58.90
2022-10-26T06:20:09.367Z,68.78
2022-10-26T06:22:59.496Z,64.45
2022-10-26T06:25:50.503Z,68.18
2022-10-26T06:28:45.014Z,69.75
2022-10-26T06:31:15.222Z,66.82
2022-10-26T06:33:42.819Z,59.72
2022-10-26T06:36:30.027Z,53.05
2022-10-26T06:39:08.978Z,39.15
2022-10-26T06:41:37.493Z,42.30
2022-10-26T06:49:36.611Z,43.03
2022-10-26T06:52:44.248Z,43.38
2022-10-26T06:55:16.629Z,36.95
2022-10-26T06:57:44.915Z,45.28
2022-10-26T07:00:21.807Z,39.90
2022-10-26T07:02:50.514Z,48.63
2022-10-26T07:05:18.627Z,46.50
2022-10-26T07:07:48.141Z,45.47
2022-10-26T07:10:16.663Z,51.75
2022-10-26T07:12:44.333Z,52.13
2022-10-26T07:15:12.296Z,113.97
2022-10-26T07:17:49.192Z,79.03
2022-10-26T07:20:20.815Z,65.18
2022-10-26T07:22:56.555Z,79.55
2022-10-26T07:25:26.150Z,83.22
2022-10-26T07:27:59.448Z,57.83
2022-10-26T07:30:28.931Z,74.18
2022-10-26T07:33:09.900Z,65.28
2022-10-26T07:35:37.765Z,67.55
2022-10-26T07:38:06.136Z,55.70
2022-10-26T07:40:33.930Z,58.58
2022-10-26T07:43:01.470Z,59.15
2022-10-26T07:45:30.125Z,71.18
2022-10-26T07:47:57.910Z,52.78
2022-10-26T07:50:25.673Z,68.28
2022-10-26T07:52:54.649Z,71.22
2022-10-26T07:55:22.124Z,76.35
2022-10-26T07:57:53.834Z,78.55
2022-10-26T08:00:22.519Z,86.65
2022-10-26T08:02:50.037Z,122.60
2022-10-26T08:05:18.287Z,133.07
2022-10-26T08:10:16.049Z,92.03
2022-10-26T08:12:44.257Z,116.25
2022-10-26T08:15:11.942Z,128.07
2022-10-26T08:17:39.287Z,107.05
2022-10-26T08:20:07.239Z,111.53
2022-10-26T08:22:34.762Z,106.53
2022-10-26T08:25:02.143Z,103.40
2022-10-26T08:27:29.400Z,99.63
2022-10-26T08:29:56.630Z,97.53
2022-10-26T08:32:24.055Z,92.78
2022-10-26T08:34:51.481Z,91.22
2022-10-26T08:37:18.894Z,95.03
2022-10-26T08:39:53.606Z,81.65
2022-10-26T08:42:45.286Z,88.07
2022-10-26T08:45:37.038Z,87.78
2022-10-26T08:48:20.028Z,74.57
2022-10-26T08:51:01.135Z,60.08
2022-10-26T08:53:42.168Z,52.08
2022-10-26T08:56:20.088Z,40.92
2022-10-26T08:59:25.376Z,51.10
2022-10-26T09:01:54.154Z,53.55
2022-10-26T09:04:30.036Z,42.65
2022-10-26T09:07:57.194Z,41.67
2022-10-26T09:11:04.264Z,42.75
2022-10-26T09:14:03.962Z,30.95
2022-10-26T09:16:50.720Z,42.92
2022-10-26T09:19:58.581Z,36.97
2022-10-26T09:22:53.596Z,37.40
2022-10-26T09:25:25.799Z,35.72
2022-10-26T09:28:01.935Z,35.72
2022-10-26T09:30:30.463Z,36.63
2022-10-26T09:36:01.565Z,37.47
2022-10-26T09:38:46.208Z,28.73
2022-10-26T09:41:37.250Z,34.60
2022-10-26T09:44:42.609Z,32.42
2022-10-26T09:47:21.080Z,46.72
2022-10-26T09:52:21.523Z,41.08
2022-10-26T09:54:48.819Z,43.85
2022-10-26T09:57:20.287Z,50.30
2022-10-26T09:59:55.832Z,43.83
2022-10-26T10:02:44.913Z,31.95
2022-10-26T10:05:45.784Z,37.55
2022-10-26T10:08:24.821Z,35.33
2022-10-26T10:11:15.557Z,41.47
2022-10-26T10:13:46.343Z,51.33
2022-10-26T10:16:21.659Z,51.47
2022-10-26T10:18:59.305Z,51.75
2022-10-26T10:21:52.689Z,53.90
2022-10-26T10:24:38.189Z,54.00
2022-10-26T10:27:17.656Z,57.40
2022-10-26T10:29:47.445Z,58.30
2022-10-26T10:32:24.497Z,55.05
2022-10-26T10:34:58.742Z,54.00
2022-10-26T10:37:38.757Z,60.22
2022-10-26T10:40:27.363Z,48.75
2022-10-26T10:43:13.320Z,52.08
2022-10-26T10:45:46.377Z,51.97
2022-10-26T10:48:15.392Z,53.45
2022-10-26T10:50:54.625Z,50.88
2022-10-26T10:53:53.427Z,54.03
2022-10-26T10:56:38.457Z,47.00
2022-10-26T10:59:48.971Z,54.55
2022-10-26T11:02:43.305Z,55.83
2022-10-26T11:05:50.368Z,72.18
2022-10-26T11:08:34.668Z,58.67
2022-10-26T11:11:18.252Z,50.22
2022-10-26T11:14:17.342Z,58.22
2022-10-26T11:17:01.612Z,60.65
2022-10-26T11:19:49.546Z,62.47
2022-10-26T11:22:26.630Z,65.05
2022-10-26T11:25:06.008Z,73.22
2022-10-26T11:27:57.129Z,66.97
2022-10-26T11:30:25.996Z,71.85
2022-10-26T11:33:10.201Z,63.88
2022-10-26T11:36:01.275Z,65.55
2022-10-26T11:38:56.928Z,58.15
2022-10-26T11:41:47.749Z,62.28
2022-10-26T11:44:52.600Z,59.35
2022-10-26T11:47:46.938Z,62.60
2022-10-26T11:50:27.417Z,58.85
2022-10-26T11:53:21.517Z,61.33
2022-10-26T11:55:54.519Z,71.07
2022-10-26T11:58:27.042Z,63.20
2022-10-26T12:01:02.812Z,64.40
2022-10-26T12:03:36.623Z,60.40
2022-10-26T12:06:04.666Z,79.28
2022-10-26T12:08:40.318Z,71.75
2022-10-26T12:11:39.370Z,72.78
2022-10-26T12:14:31.110Z,68.07
2022-10-26T12:17:37.067Z,74.53
2022-10-26T12:20:10.664Z,75.05
2022-10-26T12:22:40.330Z,78.88
2022-10-26T12:25:15.086Z,84.40
2022-10-26T12:27:42.722Z,88.15
2022-10-26T12:30:19.234Z,89.47
2022-10-26T12:32:49.681Z,93.97
2022-10-26T12:35:29.685Z,88.38
2022-10-26T12:37:57.999Z,90.60
2022-10-26T12:40:31.447Z,93.90
2022-10-26T12:43:25.008Z,88.82
2022-10-26T12:46:13.946Z,85.03
2022-10-26T12:48:51.169Z,95.63
2022-10-26T12:51:21.798Z,80.55
2022-10-26T12:54:04.137Z,86.30
2022-10-26T12:56:45.344Z,91.32
2022-10-26T12:59:27.354Z,93.85
2022-10-26T13:02:08.022Z,79.35
2022-10-26T13:04:58.088Z,83.72
2022-10-26T13:07:37.881Z,91.43
2022-10-26T13:10:13.939Z,106.30
2022-10-26T13:13:08.463Z,92.88
2022-10-26T13:16:00.575Z,98.03
2022-10-26T13:18:29.503Z,86.53
2022-10-26T13:21:17.894Z,95.82
2022-10-26T13:27:05.706Z,85.40
2022-10-26T13:29:53.330Z,61.47
2022-10-26T13:32:21.360Z,60.92
2022-10-26T13:34:48.832Z,70.47
2022-10-26T13:37:27.980Z,67.28
2022-10-26T13:39:56.552Z,75.05
2022-10-26T13:42:39.103Z,81.30
2022-10-26T13:45:21.937Z,71.95
2022-10-26T13:48:07.852Z,78.72
2022-10-26T13:53:45.655Z,84.35
2022-10-26T13:56:21.722Z,78.22
2022-10-26T13:59:11.465Z,82.25
2022-10-26T14:01:40.648Z,80.70
2022-10-26T14:04:37.210Z,83.10
2022-10-26T14:07:05.998Z,81.22
2022-10-26T14:09:34.906Z,88.95
2022-10-26T14:12:02.736Z,85.70
2022-10-26T14:14:37.572Z,94.47
2022-10-26T14:17:05.780Z,88.35
2022-10-26T14:19:46.004Z,95.57
2022-10-26T14:22:24.043Z,87.75
2022-10-26T14:24:58.357Z,91.82
2022-10-26T14:27:33.009Z,92.47
2022-10-26T14:30:21.632Z,87.45
2022-10-26T14:32:51.013Z,82.22
2022-10-26T14:35:24.063Z,78.45
2022-10-26T14:38:15.111Z,82.60
2022-10-26T14:40:43.181Z,77.82
2022-10-26T14:43:21.227Z,77.55
2022-10-26T14:45:52.255Z,76.07
2022-10-26T14:48:33.335Z,79.93
2022-10-26T14:51:22.415Z,82.63
2022-10-26T14:53:53.705Z,85.93
2022-10-26T14:56:35.577Z,75.63
2022-10-26T14:59:17.784Z,80.38
2022-10-26T15:01:59.160Z,80.25
2022-10-26T15:04:39.885Z,82.32
2022-10-26T15:07:17.767Z,87.72
2022-10-26T15:09:48.570Z,88.55
2022-10-26T15:12:38.341Z,87.65
2022-10-26T15:15:23.486Z,82.72
2022-10-26T15:17:57.376Z,89.22
2022-10-26T15:20:28.797Z,83.30
2022-10-26T15:23:03.927Z,83.47
2022-10-26T15:25:36.241Z,89.85
2022-10-26T15:28:43.353Z,80.00
2022-10-26T15:31:11.619Z,96.73
2022-10-26T15:33:43.928Z,92.68
2022-10-26T15:36:16.658Z,93.78
2022-10-26T15:38:45.512Z,86.80
2022-10-26T15:41:33.517Z,94.10
2022-10-26T15:44:07.399Z,85.15
2022-10-26T15:46:39.056Z,89.03
2022-10-26T15:49:15.228Z,82.70
2022-10-26T15:51:45.477Z,89.30
2022-10-26T15:54:13.988Z,88.32
2022-10-26T15:56:43.903Z,77.38
2022-10-26T15:59:18.409Z,88.50
2022-10-26T16:01:46.590Z,90.78
2022-10-26T16:04:14.090Z,88.15
2022-10-26T16:06:42.616Z,89.22
2022-10-26T16:11:45.818Z,87.97
2022-10-26T16:14:13.504Z,84.97
2022-10-26T16:16:41.405Z,86.00
2022-10-26T16:19:29.388Z,88.30
2022-10-26T16:21:58.418Z,87.05
2022-10-26T16:24:27.007Z,95.45
2022-10-26T16:29:22.017Z,98.93
2022-10-26T16:31:50.784Z,102.30
2022-10-26T16:34:18.256Z,93.10
2022-10-26T16:36:45.508Z,98.25
2022-10-26T16:39:13.310Z,101.75
2022-10-26T16:41:40.801Z,96.75
2022-10-26T16:44:08.243Z,92.18
2022-10-26T16:46:35.663Z,95.57
2022-10-26T16:49:02.962Z,104.70
2022-10-26T16:51:30.326Z,98.20
2022-10-26T16:53:59.478Z,95.88
2022-10-26T16:56:30.251Z,97.95
2022-10-26T16:58:57.919Z,106.55
2022-10-26T17:01:25.392Z,105.65
2022-10-26T17:03:53.353Z,107.63
2022-10-26T17:06:21.204Z,101.13
2022-10-26T17:08:48.722Z,99.93
2022-10-26T17:11:19.764Z,98.95
2022-10-26T17:13:48.245Z,92.30
2022-10-26T17:16:20.867Z,98.90
2022-10-26T17:18:48.863Z,102.00
2022-10-26T17:21:19.496Z,95.88
2022-10-26T17:23:47.043Z,97.55
2022-10-26T17:26:15.212Z,101.87
2022-10-26T17:28:43.079Z,98.97
2022-10-26T17:31:15.375Z,98.78
2022-10-26T17:33:44.933Z,88.00
2022-10-26T17:36:13.962Z,95.18
2022-10-26T17:38:43.178Z,88.30
2022-10-26T17:41:17.003Z,93.32
2022-10-26T17:43:47.850Z,95.00
2022-10-26T17:46:19.198Z,103.03
2022-10-26T17:48:46.921Z,94.57
2022-10-26T17:51:18.219Z,91.83
2022-10-26T17:53:50.908Z,91.93
2022-10-26T17:56:20.770Z,84.78
2022-10-26T17:58:56.582Z,83.18
2022-10-26T18:01:25.479Z,76.28
2022-10-26T18:03:53.542Z,77.53
2022-10-26T18:06:22.243Z,82.53
2022-10-26T18:08:49.999Z,81.32
2022-10-26T18:11:26.180Z,77.93
2022-10-26T18:13:58.212Z,81.93
2022-10-26T18:16:27.861Z,81.97
2022-10-26T18:19:00.601Z,83.95
2022-10-26T18:21:31.049Z,79.30
2022-10-26T18:23:58.988Z,88.97
2022-10-26T18:26:29.988Z,83.13
2022-10-26T18:29:00.266Z,80.75
2022-10-26T18:31:29.662Z,77.97
2022-10-26T18:34:00.424Z,77.30
2022-10-26T18:36:29.187Z,81.70
2022-10-26T18:38:57.162Z,82.63
2022-10-26T18:41:27.464Z,76.97
2022-10-26T18:43:59.079Z,80.57
2022-10-26T18:46:30.656Z,81.13
2022-10-26T18:49:00.951Z,74.20
2022-10-26T18:51:34.892Z,72.45
2022-10-26T18:54:02.940Z,85.22
2022-10-26T18:56:30.813Z,90.57
2022-10-26T18:59:00.322Z,83.05
2022-10-26T19:01:31.983Z,82.80
2022-10-26T19:04:06.009Z,94.28
2022-10-26T19:06:40.471Z,83.63
2022-10-26T19:09:10.189Z,91.53
2022-10-26T19:11:38.095Z,95.43
2022-10-26T19:14:07.006Z,95.32
2022-10-26T19:16:50.341Z,97.63
2022-10-26T19:19:20.090Z,88.97
2022-10-26T19:21:49.863Z,92.45
2022-10-26T19:24:20.912Z,91.22
2022-10-26T19:26:53.009Z,89.47
2022-10-26T19:29:21.120Z,84.00
2022-10-26T19:31:52.383Z,83.15
2022-10-26T19:34:19.982Z,84.05
2022-10-26T19:36:47.809Z,87.80
2022-10-26T19:39:18.878Z,89.63
2022-10-26T19:41:46.851Z,85.25
2022-10-26T19:44:15.322Z,89.85
2022-10-26T19:46:43.708Z,101.60
2022-10-26T19:49:17.654Z,88.68
2022-10-26T19:51:45.023Z,100.18
2022-10-26T19:54:12.312Z,99.82
2022-10-26T19:56:40.386Z,90.82
2022-10-26T19:59:08.302Z,105.05
2022-10-26T20:01:35.774Z,98.78
2022-10-26T20:04:04.292Z,94.70
2022-10-26T20:06:32.185Z,102.70
2022-10-26T20:09:00.061Z,99.53
2022-10-26T20:11:28.163Z,100.10
2022-10-26T20:13:56.561Z,96.65
2022-10-26T20:16:24.912Z,95.45
2022-10-26T20:18:52.152Z,85.30
2022-10-26T20:21:19.778Z,94.90
2022-10-26T20:23:47.040Z,83.80
2022-10-26T20:26:18.286Z,83.43
2022-10-26T20:28:51.038Z,84.68
2022-10-26T20:31:19.861Z,81.35
2022-10-26T20:33:53.739Z,68.63
2022-10-26T20:36:21.989Z,64.63
2022-10-26T20:38:50.049Z,61.85
2022-10-26T20:41:18.039Z,70.05
2022-10-26T20:43:46.173Z,61.65
2022-10-26T20:46:24.020Z,58.90
2022-10-26T20:48:53.102Z,64.63
2022-10-26T20:51:41.920Z,60.65
2022-10-26T20:54:22.903Z,55.22
2022-10-26T21:02:01.756Z,62.45
2022-10-26T21:04:29.422Z,54.30
2022-10-26T21:06:57.968Z,57.95
2022-10-26T21:09:27.631Z,65.95
2022-10-26T21:11:57.851Z,65.30
2022-10-26T21:14:25.272Z,66.30
2022-10-26T21:16:52.618Z,69.00
2022-10-26T21:19:28.341Z,67.35
2022-10-26T21:21:57.272Z,72.80
2022-10-26T21:24:24.669Z,56.78
2022-10-26T21:26:52.965Z,66.13
2022-10-26T21:29:20.509Z,65.30
2022-10-26T21:31:47.939Z,67.65
2022-10-26T21:34:16.183Z,63.05
2022-10-26T21:36:46.344Z,65.88
2022-10-26T21:39:13.849Z,57.83
2022-10-26T21:41:41.181Z,64.82
2022-10-26T21:44:23.248Z,62.15
2022-10-26T21:47:00.448Z,59.55
2022-10-26T21:49:28.793Z,59.40
2022-10-26T21:51:56.024Z,63.35
2022-10-26T21:54:23.281Z,58.00
2022-10-26T21:56:50.618Z,63.70
2022-10-26T21:59:17.942Z,60.03
2022-10-26T22:01:45.439Z,56.72
2022-10-26T22:04:13.229Z,59.80
2022-10-26T22:06:42.489Z,63.92
2022-10-26T22:09:11.461Z,58.72
2022-10-26T22:11:40.523Z,59.90
2022-10-26T22:14:09.014Z,61.70
2022-10-26T22:19:07.244Z,57.83
2022-10-26T22:21:39.165Z,57.17
2022-10-26T22:24:07.406Z,52.97
2022-10-26T22:26:39.063Z,57.03
2022-10-26T22:29:07.563Z,58.08
2022-10-26T22:31:39.304Z,56.05
2022-10-26T22:34:17.122Z,60.13
2022-10-26T22:36:44.886Z,53.97
2022-10-26T22:39:12.139Z,62.08
2022-10-26T22:41:39.754Z,57.55
2022-10-26T22:44:07.303Z,50.83
2022-10-26T22:46:34.740Z,61.97
2022-10-26T22:49:03.332Z,59.53
2022-10-26T22:51:34.383Z,61.08
2022-10-26T22:54:04.559Z,59.85
2022-10-26T22:56:34.419Z,54.58
2022-10-26T22:59:01.892Z,54.17
2022-10-26T23:01:36.432Z,55.47
2022-10-26T23:04:04.271Z,54.90
2022-10-26T23:06:33.075Z,53.63
2022-10-26T23:09:00.490Z,58.88
2022-10-26T23:11:29.772Z,53.05
2022-10-26T23:14:02.545Z,54.60
2022-10-26T23:16:31.228Z,54.20
2022-10-26T23:21:28.438Z,47.55
2022-10-26T23:23:56.374Z,52.53
2022-10-26T23:26:24.451Z,50.97
2022-10-26T23:28:51.707Z,50.95
2022-10-26T23:31:27.914Z,50.28
2022-10-26T23:33:56.656Z,54.22
2022-10-26T23:36:29.061Z,59.47
2022-10-26T23:38:58.006Z,51.00
2022-10-26T23:41:25.335Z,51.92
2022-10-26T23:43:52.607Z,54.47
2022-10-26T23:46:20.028Z,55.55
2022-10-26T23:48:47.399Z,50.15
2022-10-26T23:51:14.841Z,51.58
2022-10-26T23:53:42.186Z,56.33
2022-10-26T23:56:09.411Z,53.30
2022-10-26T23:58:36.658Z,53.60
